^^
Meteo Knjazevac Station Historical Data
Daily Summary for October 02, 2022 Units:  English    Metric   Both
Daily Weekly Monthly Yearly Custom
  High: Low: Average:
Temperature: 70.2 °F 51.1 °F 57.6 °F
Dew Point: 65.3 °F 50.8 °F 56.4 °F
Humidity: 99% 78.1% 96%
Wind Speed: 8.4mph 0.4mph 3.2mph
Wind Gust: 10mph - -
Wind- - WSW
Pressure: 30.16 in 30.12 in -
Precipitation: 0.01 in    
Historical Graphs
 
 
Tabular Data for October 02, 2022
Time Temperature Dew Point Pressure Wind Wind Speed Wind Gust Humidity Rainfall Rate (Hourly) solar Conditions
00:04 56.4 °F 55.8 °F 30.12 in NW 2.2 mph 3 mph 98% 0.00 in 0 W/m2
00:09 56.4 °F 55.8 °F 30.12 in WNW 2.1 mph 3 mph 98% 0.00 in 0 W/m2
00:14 56.3 °F 55.7 °F 30.13 in WNW 1.3 mph 3 mph 98% 0.00 in 0 W/m2
00:19 56.2 °F 55.6 °F 30.13 in NW 1.8 mph 2 mph 98% 0.00 in 0 W/m2
00:24 56.1 °F 55.6 °F 30.13 in NW 1.5 mph 2 mph 98% 0.00 in 0 W/m2
00:29 55.9 °F 55.4 °F 30.13 in NW 1.6 mph 2 mph 98% 0.00 in 0 W/m2
00:34 55.8 °F 55.2 °F 30.13 in NW 1.1 mph 2 mph 98% 0.00 in 0 W/m2
00:39 55.7 °F 55.1 °F 30.13 in NW 1.7 mph 2 mph 98% 0.00 in 0 W/m2
00:44 55.3 °F 54.8 °F 30.13 in NW 1.5 mph 2 mph 98% 0.00 in 0 W/m2
00:49 55.1 °F 54.8 °F 30.13 in West 1.9 mph 2 mph 98.9% 0.00 in 0 W/m2
00:54 55 °F 54.8 °F 30.13 in WSW 2.1 mph 2 mph 99% 0.00 in 0 W/m2
00:59 54.9 °F 54.6 °F 30.13 in West 2.1 mph 3 mph 99% 0.00 in 0 W/m2
01:04 54.8 °F 54.5 °F 30.13 in WNW 1.5 mph 3 mph 99% 0.00 in 0 W/m2
01:09 54.7 °F 54.4 °F 30.12 in NW 2.3 mph 2 mph 99% 0.00 in 0 W/m2
01:14 54.7 °F 54.4 °F 30.12 in WNW 2.5 mph 2.2 mph 99% 0.00 in 0 W/m2
01:19 54.5 °F 54.2 °F 30.12 in WNW 3.5 mph 3 mph 99% 0.00 in 0 W/m2
01:24 54.5 °F 54.2 °F 30.12 in WNW 2.5 mph 4 mph 99% 0.00 in 0 W/m2
01:29 54.5 °F 54.2 °F 30.13 in NW 2.2 mph 2 mph 99% 0.00 in 0 W/m2
01:34 54.5 °F 54.2 °F 30.13 in NW 2.2 mph 2 mph 99% 0.00 in 0 W/m2
01:39 54.4 °F 54.1 °F 30.13 in NW 1.5 mph 2 mph 99% 0.00 in 0 W/m2
01:44 54.2 °F 54 °F 30.13 in NW 1.6 mph 2 mph 99% 0.00 in 0 W/m2
01:49 54.1 °F 53.8 °F 30.13 in WNW 1 mph 2 mph 99% 0.00 in 0 W/m2
01:54 53.9 °F 53.6 °F 30.13 in West 0.4 mph 2 mph 99% 0.00 in 0 W/m2
01:59 53.7 °F 53.4 °F 30.13 in NNW 1.7 mph 1.1 mph 99% 0.00 in 0 W/m2
02:04 53.5 °F 53.2 °F 30.13 in NW 2.2 mph 2 mph 99% 0.00 in 0 W/m2
02:09 53.3 °F 53.1 °F 30.13 in West 3.3 mph 3.1 mph 99% 0.00 in 0 W/m2
02:14 53.1 °F 52.9 °F 30.13 in West 2.7 mph 5 mph 99% 0.00 in 0 W/m2
02:19 53 °F 52.7 °F 30.13 in West 2.4 mph 4 mph 99% 0.00 in 0 W/m2
02:24 52.8 °F 52.5 °F 30.13 in WSW 2.3 mph 3 mph 99% 0.00 in 0 W/m2
02:29 52.7 °F 52.4 °F 30.13 in West 3.4 mph 3 mph 99% 0.00 in 0 W/m2
02:34 52.5 °F 52.2 °F 30.12 in WNW 4.4 mph 5 mph 99% 0.00 in 0 W/m2
02:39 52.5 °F 52.2 °F 30.13 in West 3.7 mph 5 mph 99% 0.00 in 0 W/m2
02:44 52.6 °F 52.3 °F 30.12 in WNW 3.1 mph 4 mph 99% 0.00 in 0 W/m2
02:49 52.7 °F 52.4 °F 30.12 in WNW 2.9 mph 3 mph 99% 0.00 in 0 W/m2
02:54 52.7 °F 52.4 °F 30.12 in West 3.4 mph 3 mph 99% 0.00 in 0 W/m2
02:59 52.7 °F 52.4 °F 30.12 in West 2.8 mph 3 mph 99% 0.00 in 0 W/m2
03:04 52.6 °F 52.3 °F 30.12 in West 1.7 mph 3 mph 99% 0.00 in 0 W/m2
03:09 52.5 °F 52.2 °F 30.12 in WNW 1.6 mph 2 mph 99% 0.00 in 0 W/m2
03:14 52.4 °F 52.1 °F 30.12 in NW 1.7 mph 2 mph 99% 0.00 in 0 W/m2
03:19 52.3 °F 52 °F 30.12 in NW 1.7 mph 2 mph 99% 0.00 in 0 W/m2
03:24 52.2 °F 51.9 °F 30.12 in WNW 1.7 mph 2 mph 99% 0.00 in 0 W/m2
03:29 52.1 °F 51.8 °F 30.12 in NW 3.2 mph 3 mph 99% 0.00 in 0 W/m2
03:34 52.1 °F 51.8 °F 30.12 in WNW 3.1 mph 4 mph 99% 0.00 in 0 W/m2
03:39 52.1 °F 51.8 °F 30.12 in WNW 2.5 mph 3 mph 99% 0.00 in 0 W/m2
03:44 52.1 °F 51.8 °F 30.12 in WNW 2.5 mph 3 mph 99% 0.00 in 0 W/m2
03:49 52 °F 51.7 °F 30.12 in West 1.4 mph 3 mph 99% 0.00 in 0 W/m2
03:54 51.8 °F 51.6 °F 30.12 in West 2.2 mph 3 mph 99% 0.00 in 0 W/m2
03:59 51.7 °F 51.4 °F 30.12 in West 1.8 mph 3 mph 99% 0.00 in 0 W/m2
04:04 51.5 °F 51.3 °F 30.12 in West 2.1 mph 2 mph 99% 0.00 in 0 W/m2
04:09 51.4 °F 51.2 °F 30.13 in WSW 2.9 mph 2.5 mph 99% 0.00 in 0 W/m2
04:14 51.3 °F 51 °F 30.13 in West 2.3 mph 4 mph 99% 0.00 in 0 W/m2
04:19 51.2 °F 50.9 °F 30.12 in West 2.6 mph 2.9 mph 99% 0.00 in 0 W/m2
04:24 51.1 °F 50.8 °F 30.12 in West 3 mph 4 mph 99% 0.00 in 0 W/m2
04:29 51.1 °F 50.8 °F 30.12 in West 3.9 mph 3.4 mph 99% 0.00 in 0 W/m2
04:34 51.2 °F 50.9 °F 30.13 in West 3.6 mph 5 mph 99% 0.00 in 0 W/m2
04:39 51.3 °F 51 °F 30.13 in West 4.2 mph 5 mph 99% 0.00 in 0 W/m2
04:44 51.3 °F 51 °F 30.13 in West 3.4 mph 5 mph 99% 0.00 in 0 W/m2
04:49 51.1 °F 50.8 °F 30.14 in West 3.1 mph 3 mph 99% 0.00 in 0 W/m2
04:54 51.1 °F 50.8 °F 30.14 in West 3.3 mph 4 mph 99% 0.00 in 0 W/m2
04:59 51.1 °F 50.8 °F 30.13 in WNW 2.8 mph 4 mph 99% 0.00 in 0 W/m2
05:04 51.3 °F 51 °F 30.13 in WNW 2.6 mph 4 mph 99% 0.00 in 0 W/m2
05:09 51.3 °F 51.1 °F 30.13 in West 3.3 mph 3 mph 99% 0.00 in 0 W/m2
05:14 51.4 °F 51.2 °F 30.13 in WNW 3.4 mph 3 mph 99% 0.00 in 0 W/m2
05:19 51.6 °F 51.3 °F 30.13 in WNW 2.9 mph 3 mph 99% 0.00 in 0 W/m2
05:24 51.7 °F 51.4 °F 30.13 in WNW 3.4 mph 4 mph 99% 0.00 in 0 W/m2
05:29 51.8 °F 51.5 °F 30.13 in West 2.8 mph 3 mph 99% 0.00 in 0 W/m2
05:34 51.7 °F 51.4 °F 30.13 in WNW 2.3 mph 3 mph 99% 0.00 in 0 W/m2
05:39 51.7 °F 51.4 °F 30.13 in WNW 3.2 mph 3 mph 99% 0.00 in 0 W/m2
05:44 51.8 °F 51.5 °F 30.13 in WNW 3.5 mph 4 mph 99% 0.00 in 0 W/m2
05:49 51.9 °F 51.6 °F 30.13 in West 3 mph 4 mph 99% 0.00 in 0 W/m2
05:54 51.9 °F 51.6 °F 30.13 in West 2.6 mph 4 mph 99% 0.00 in 0 W/m2
05:59 51.8 °F 51.5 °F 30.13 in WNW 3.5 mph 4 mph 99% 0.00 in 0 W/m2
06:04 51.8 °F 51.5 °F 30.13 in NW 1.8 mph 4 mph 99% 0.00 in 0 W/m2
06:09 51.7 °F 51.4 °F 30.13 in West 2.7 mph 2.5 mph 99% 0.00 in 0 W/m2
06:14 51.4 °F 51.2 °F 30.13 in SW 2.8 mph 3 mph 99% 0.00 in 0 W/m2
06:19 51.4 °F 51.1 °F 30.13 in WSW 3.2 mph 3 mph 99% 0.00 in 0 W/m2
06:24 51.3 °F 51 °F 30.13 in WSW 4.1 mph 4 mph 99% 0.00 in 1 W/m2
06:29 51.4 °F 51.1 °F 30.13 in West 4.3 mph 5 mph 99% 0.00 in 2 W/m2
06:34 51.6 °F 51.3 °F 30.14 in NW 3.2 mph 6 mph 99% 0.00 in 5 W/m2
06:39 51.8 °F 51.5 °F 30.14 in WNW 3.9 mph 5 mph 99% 0.00 in 8 W/m2
06:44 51.8 °F 51.5 °F 30.14 in WSW 3.2 mph 5 mph 99% 0.00 in 9 W/m2
06:49 51.6 °F 51.3 °F 30.14 in WSW 2.4 mph 3 mph 99% 0.00 in 13 W/m2
06:54 51.6 °F 51.3 °F 30.14 in WNW 1.3 mph 3 mph 99% 0.00 in 18 W/m2
06:59 51.8 °F 51.5 °F 30.13 in North 1.4 mph 2 mph 99% 0.00 in 28 W/m2
07:04 52 °F 51.7 °F 30.14 in NNE 1.1 mph 2.7 mph 99% 0.00 in 44 W/m2
07:09 52.2 °F 51.9 °F 30.14 in NW 2.8 mph 3 mph 99% 0.00 in 53 W/m2
07:14 52.2 °F 52 °F 30.14 in WNW 3.2 mph 3 mph 99% 0.00 in 64 W/m2
07:19 52.4 °F 52.2 °F 30.13 in NW 2.4 mph 3 mph 99% 0.00 in 78 W/m2
07:24 52.8 °F 52.5 °F 30.14 in NW 2.7 mph 3 mph 99% 0.00 in 81 W/m2
07:29 53.1 °F 52.9 °F 30.13 in NW 2.7 mph 4 mph 99% 0.00 in 77 W/m2
07:34 53.5 °F 53.2 °F 30.13 in NW 1.2 mph 3 mph 99% 0.00 in 66 W/m2
07:39 53.9 °F 53.6 °F 30.12 in NW 0.5 mph 2 mph 99% 0.00 in 71 W/m2
07:44 54.1 °F 53.8 °F 30.13 in WNW 2.2 mph 2.5 mph 99% 0.00 in 80 W/m2
07:49 54.1 °F 53.9 °F 30.14 in WSW 3.2 mph 3 mph 99% 0.00 in 89 W/m2
07:54 54.3 °F 54 °F 30.14 in WSW 3 mph 4 mph 99% 0.00 in 108 W/m2
07:59 54.7 °F 54.4 °F 30.14 in WSW 2.9 mph 3 mph 99% 0.00 in 117 W/m2
08:04 54.9 °F 54.7 °F 30.14 in SW 3.4 mph 4 mph 99% 0.00 in 131 W/m2
08:09 55.1 °F 54.8 °F 30.14 in WSW 4.1 mph 5 mph 99% 0.00 in 146 W/m2
08:14 55.4 °F 55.1 °F 30.14 in West 4.2 mph 5 mph 99% 0.00 in 140 W/m2
08:19 55.8 °F 55.5 °F 30.14 in West 4 mph 5 mph 99% 0.00 in 140 W/m2
08:24 56.3 °F 56 °F 30.14 in WSW 3.5 mph 5 mph 99% 0.00 in 125 W/m2
08:29 56.6 °F 56.4 °F 30.14 in WSW 2.6 mph 3 mph 99% 0.00 in 155 W/m2
08:34 57.2 °F 56.9 °F 30.14 in SW 3.3 mph 4 mph 99% 0.00 in 164 W/m2
08:39 57.5 °F 57.2 °F 30.14 in South 3.2 mph 4 mph 99% 0.00 in 175 W/m2
08:44 57.8 °F 57.5 °F 30.14 in SE 2.5 mph 4 mph 99% 0.00 in 162 W/m2
08:49 58.2 °F 57.9 °F 30.14 in North 2.2 mph 3 mph 99% 0.00 in 182 W/m2
08:54 58.6 °F 58.3 °F 30.14 in WNW 2.1 mph 2 mph 99% 0.00 in 212 W/m2
08:59 59.2 °F 58.9 °F 30.13 in West 3.3 mph 3.8 mph 99% 0.00 in 201 W/m2
09:04 59.5 °F 59.3 °F 30.13 in West 4 mph 6 mph 99% 0.00 in 131 W/m2
09:09 59.6 °F 59.3 °F 30.13 in West 3.8 mph 5 mph 99% 0.00 in 137 W/m2
09:14 59.8 °F 59.5 °F 30.13 in WSW 3.7 mph 5 mph 99% 0.00 in 147 W/m2
09:19 60.1 °F 59.8 °F 30.14 in WSW 3.4 mph 4 mph 99% 0.00 in 167 W/m2
09:24 60.5 °F 60.2 °F 30.14 in WSW 3.1 mph 4 mph 99% 0.00 in 192 W/m2
09:29 61 °F 60.7 °F 30.14 in SW 1.3 mph 3 mph 99% 0.00 in 284 W/m2
09:34 61.6 °F 61.3 °F 30.14 in SSW 2.9 mph 2.5 mph 99% 0.00 in 261 W/m2
09:39 62.1 °F 61.7 °F 30.14 in South 3.4 mph 4 mph 98.8% 0.00 in 253 W/m2
09:44 62.3 °F 61.7 °F 30.14 in SSW 3.4 mph 3 mph 97.6% 0.00 in 262 W/m2
09:49 62.8 °F 61.6 °F 30.14 in SW 3 mph 3 mph 96% 0.00 in 257 W/m2
09:54 63.2 °F 62 °F 30.14 in SW 2.9 mph 3.1 mph 96% 0.00 in 274 W/m2
09:59 63.6 °F 62.1 °F 30.14 in SW 3.1 mph 4 mph 95.3% 0.00 in 251 W/m2
10:04 63.9 °F 62.4 °F 30.14 in SW 3.1 mph 4 mph 95% 0.00 in 232 W/m2
10:09 64.1 °F 62.7 °F 30.14 in WSW 3.4 mph 3 mph 95% 0.00 in 247 W/m2
10:14 64.6 °F 63.2 °F 30.14 in WSW 3 mph 4 mph 95.2% 0.00 in 248 W/m2
10:19 65.3 °F 63.7 °F 30.14 in WSW 2.2 mph 4 mph 94.5% 0.00 in 241 W/m2
10:24 65.8 °F 63.9 °F 30.14 in SW 2.3 mph 2 mph 93.7% 0.00 in 226 W/m2
10:29 66.2 °F 64.1 °F 30.14 in SW 2.6 mph 3 mph 93% 0.00 in 222 W/m2
10:34 66.5 °F 64.4 °F 30.14 in SW 3.1 mph 3 mph 93% 0.00 in 220 W/m2
10:39 66.7 °F 64 °F 30.14 in SW 2.9 mph 4 mph 90.9% 0.00 in 211 W/m2
10:44 67 °F 64.1 °F 30.14 in SW 2.9 mph 3 mph 90.5% 0.00 in 208 W/m2
10:49 67.3 °F 64.1 °F 30.15 in SW 3.1 mph 3 mph 89.6% 0.00 in 251 W/m2
10:54 67.6 °F 64.2 °F 30.14 in SW 2.1 mph 3 mph 88.8% 0.00 in 276 W/m2
10:59 67.9 °F 64.1 °F 30.14 in South 1.6 mph 2 mph 87.7% 0.00 in 293 W/m2
11:04 68.3 °F 64.1 °F 30.14 in NE 2.7 mph 3.1 mph 86.5% 0.00 in 272 W/m2
11:09 68.6 °F 63.7 °F 30.14 in NE 3.7 mph 5 mph 84.4% 0.00 in 227 W/m2
11:14 69.1 °F 63.2 °F 30.14 in ESE 5.1 mph 5 mph 81.4% 0.00 in 207 W/m2
11:19 69.7 °F 63.3 °F 30.14 in South 5.2 mph 6 mph 80.2% 0.00 in 143 W/m2
11:24 70 °F 63.4 °F 30.15 in SSW 3.5 mph 6 mph 79.7% 0.00 in 141 W/m2
11:29 70.2 °F 63.5 °F 30.15 in SW 5.9 mph 6.9 mph 79.5% 0.00 in 123 W/m2
11:34 70.2 °F 63 °F 30.15 in SSW 7.3 mph 9 mph 78.1% 0.00 in 100 W/m2
11:39 70.1 °F 63.2 °F 30.15 in SSW 5.6 mph 9 mph 78.7% 0.00 in 73 W/m2
11:44 69.8 °F 63 °F 30.16 in SSW 5.6 mph 7 mph 79% 0.00 in 51 W/m2
11:49 69.5 °F 63.1 °F 30.16 in SSW 4.5 mph 8 mph 79.9% 0.00 in 50 W/m2
11:54 69.3 °F 63 °F 30.16 in SSW 5.7 mph 6 mph 80.5% 0.00 in 54 W/m2
11:59 69 °F 63.2 °F 30.16 in SSW 6.5 mph 7 mph 82.1% 0.00 in 53 W/m2
12:04 68.6 °F 63.5 °F 30.16 in SW 7.3 mph 7 mph 83.8% 0.00 in 58 W/m2
12:09 68.1 °F 63.3 °F 30.16 in SW 6.7 mph 8 mph 84.7% 0.00 in 64 W/m2
12:14 67.7 °F 63.2 °F 30.15 in SW 5 mph 7 mph 85.6% 0.00 in 67 W/m2
12:19 67.3 °F 63.7 °F 30.15 in SSW 4.3 mph 6 mph 88.3% 0.01 in 72 W/m2
12:24 67 °F 63.9 °F 30.15 in SSW 2.9 mph 5 mph 89.7% 0.01 in 96 W/m2
12:29 66.7 °F 63.9 °F 30.14 in South 2.9 mph 3 mph 90.6% 0.01 in 209 W/m2
12:34 66.7 °F 64.7 °F 30.13 in SSW 3.9 mph 3.6 mph 93.3% 0.01 in 223 W/m2
12:39 66.7 °F 65 °F 30.13 in SW 6.3 mph 6 mph 94% 0.01 in 226 W/m2
12:44 66.8 °F 65.1 °F 30.12 in SW 6.9 mph 7 mph 94% 0.01 in 214 W/m2
12:49 67.1 °F 64.9 °F 30.12 in SW 8.4 mph 7 mph 92.5% 0.01 in 209 W/m2
12:54 67.3 °F 64.9 °F 30.12 in SW 8.2 mph 10 mph 91.9% 0.01 in 192 W/m2
12:59 67.4 °F 65.3 °F 30.12 in SW 6.7 mph 9 mph 92.8% 0.01 in 167 W/m2
13:04 67.5 °F 65 °F 30.12 in SW 5.4 mph 7 mph 91.8% 0.01 in 111 W/m2
13:09 67.5 °F 64.7 °F 30.12 in SW 5.3 mph 6 mph 91% 0.01 in 61 W/m2
13:14 67.3 °F 64.6 °F 30.12 in WSW 6.1 mph 6 mph 91% 0.01 in 66 W/m2
13:19 67.1 °F 64.4 °F 30.12 in WSW 5.4 mph 7 mph 90.8% 0.01 in 66 W/m2
13:24 66.9 °F 64.2 °F 30.12 in WSW 6.6 mph 6 mph 91% 0.00 in 62 W/m2
13:25 66.9 °F 64.2 °F 30.12 in WSW 3 mph 7 mph 91% 0.00 in 46 W/m2
Knjazevac, Serbia
Compliments of Weather Underground - 2 mb